D/T METAR WX W/DIR W/SPE G/SPE TEMP DEWP
19/03/19 02:50 EGXZ 190250Z AUTO 13003KT 6000 BR BKN031/// 06/05 Q1023 BR SE (130°) 3.5mph 6°C 5°C
19/03/19 01:50 EGXZ 190150Z AUTO 10002KT 9999 OVC029/// 06/05 Q1023 E (100°) 2.3mph 6°C 5°C
19/03/19 00:50 EGXZ 190050Z AUTO 23003KT 9999 OVC028/// 07/06 Q1022 SW (230°) 3.5mph 7°C 6°C
18/03/19 23:50 EGXZ 182350Z AUTO 22005KT 9999 OVC023/// 07/06 Q1022 SW (220°) 5.8mph 7°C 6°C
18/03/19 22:50 EGXZ 182250Z AUTO 21004KT 9999 OVC024/// 07/06 Q1022 SSW (210°) 4.6mph 7°C 6°C
18/03/19 21:50 EGXZ 182150Z AUTO 21003KT 9999 OVC029/// 07/05 Q1022 SSW (210°) 3.5mph 7°C 5°C
18/03/19 20:50 EGXZ 182050Z AUTO 23007KT 9999 SCT024/// BKN029/// 07/06 Q1022 SW (230°) 8.1mph 7°C 6°C
18/03/19 19:50 EGXZ 181950Z AUTO 23005KT 9999 BKN024/// 08/05 Q1021 SW (230°) 5.8mph 8°C 5°C
18/03/19 18:50 EGXZ 181850Z AUTO 24005KT 9999 BKN030/// SCT044/// 08/05 Q1020 WSW (240°) 5.8mph 8°C 5°C
18/03/19 17:50 EGXZ 181750Z AUTO 23006KT 9999 SCT032/// BKN040/// 09/05 Q1020 SW (230°) 6.9mph 9°C 5°C
18/03/19 16:50 EGXZ 181650Z AUTO 25008KT 9999 FEW029/// SCT041/// 09/03 Q1019 WSW (250°) 9.2mph 9°C 3°C
18/03/19 15:50 EGXZ 181550Z AUTO 23008KT 9999 FEW028/// SCT035/// 09/04 Q1019 SW (230°) 9.2mph 9°C 4°C
18/03/19 14:50 EGXZ 181450Z AUTO 25010KT 9999 FEW031/// BKN050/// 10/04 Q1018 RERA WSW (250°) 11.5mph 10°C 4°C
18/03/19 13:50 EGXZ 181350Z AUTO 33003KT 9999 FEW031/// BKN042/// 09/03 Q1018 RERA NNW (330°) 3.5mph 9°C 3°C
18/03/19 12:50 EGXZ 181250Z AUTO 27007KT 9999 BKN046/// 09/03 Q1018 W (270°) 8.1mph 9°C 3°C
18/03/19 11:50 EGXZ 181150Z AUTO 27007KT 9999 SCT033/// 10/02 Q1018 W (270°) 8.1mph 10°C 2°C
18/03/19 10:50 EGXZ 181050Z AUTO 28006KT 9999 SCT026/// SCT041/// 09/02 Q1018 W (280°) 6.9mph 9°C 2°C
18/03/19 09:50 EGXZ 180950Z AUTO 32003KT 9999 NCD 08/03 Q1017 NW (320°) 3.5mph 8°C 3°C
18/03/19 08:50 EGXZ 180850Z AUTO 32003KT 9999 FEW043/// 06/02 Q1017 NW (320°) 3.5mph 6°C 2°C
18/03/19 07:50 EGXZ 180750Z AUTO 28001KT 9999 NCD 02/02 Q1017 W (280°) 1.2mph 2°C 2°C
18/03/19 06:50 EGXZ 180650Z AUTO 27003KT 9999 FEW160/// 01/M01 Q1016 W (270°) 3.5mph 1°C -1°C
18/03/19 05:50 EGXZ 180550Z AUTO 32003KT 9999 FEW035/// 02/M01 Q1016 NW (320°) 3.5mph 2°C -1°C
18/03/19 04:50 EGXZ 180450Z AUTO 26005KT 9999 BKN037/// BKN044/// 04/01 Q1015 W (260°) 5.8mph 4°C 1°C
18/03/19 03:50 EGXZ 180350Z AUTO 30007KT 9999 BKN150/// 03/M00 Q1015 WNW (300°) 8.1mph 3°C 0°C
18/03/19 02:50 EGXZ 180250Z AUTO 30007KT 9999 FEW050/// BKN210/// 03/00 Q1014 WNW (300°) 8.1mph 3°C 0°C
18/03/19 01:50 EGXZ 180150Z AUTO 31007KT 9999 SCT050/// 04/01 Q1014 NW (310°) 8.1mph 4°C 1°C
18/03/19 00:50 EGXZ 180050Z AUTO 29007KT 9999 BKN050/// 05/01 Q1013 WNW (290°) 8.1mph 5°C 1°C
17/03/19 23:50 EGXZ 172350Z AUTO 31007KT 9999 SCT210/// 03/M00 Q1012 NW (310°) 8.1mph 3°C 0°C
17/03/19 22:50 EGXZ 172250Z AUTO 29006KT 9999 NCD 05/01 Q1012 WNW (290°) 6.9mph 5°C 1°C
17/03/19 21:50 EGXZ 172150Z AUTO 19006KT 9999 BKN050/// 02/00 Q1011 S (190°) 6.9mph 2°C 0°C
17/03/19 20:50 EGXZ 172050Z AUTO 29008KT 9999 NCD 05/01 Q1009 WNW (290°) 9.2mph 5°C 1°C
17/03/19 19:50 EGXZ 171950Z AUTO 30013KT 9999 SCT060/// 06/02 Q1008 WNW (300°) 15.0mph 6°C 2°C
17/03/19 18:50 EGXZ 171850Z AUTO 30009KT 9999 FEW060/// 06/02 Q1007 WNW (300°) 10.4mph 6°C 2°C
17/03/19 17:50 EGXZ 171750Z AUTO 30013KT 9999 BKN047/// 08/03 Q1005 RERA WNW (300°) 15.0mph 8°C 3°C
17/03/19 16:50 EGXZ 171650Z AUTO 29015KT 9999 SCT080/// 09/02 Q1004 WNW (290°) 17.3mph 9°C 2°C
17/03/19 15:50 EGXZ 171550Z AUTO 28014G24KT 9999 FEW050/// 09/02 Q1003 W (280°) 16.1mph 27.6mph 9°C 2°C
17/03/19 14:50 EGXZ 171450Z AUTO 29018G28KT 9999 FEW044/// 09/00 Q1001 WNW (290°) 20.7mph 32.2mph 9°C 0°C
17/03/19 13:50 EGXZ 171350Z AUTO 29017G27KT 9999 BKN044/// 09/M01 Q1001 WNW (290°) 19.6mph 31.1mph 9°C -1°C
17/03/19 12:50 EGXZ 171250Z AUTO 29016KT 9999 BKN041/// 09/00 Q1000 WNW (290°) 18.4mph 9°C 0°C
17/03/19 11:50 EGXZ 171150Z AUTO 27017KT 9999 SCT034/// 08/M01 Q1000 W (270°) 19.6mph 8°C -1°C
17/03/19 10:50 EGXZ 171050Z AUTO 28015KT 9999 FEW030/// 07/00 Q0999 W (280°) 17.3mph 7°C 0°C
17/03/19 09:50 EGXZ 170950Z AUTO 29014KT 9999 FEW028/// SCT046/// 06/01 Q0999 WNW (290°) 16.1mph 6°C 1°C
17/03/19 08:50 EGXZ 170850Z AUTO 27010KT 9999 FEW030/// 05/M00 Q0998 W (270°) 11.5mph 5°C 0°C
17/03/19 07:50 EGXZ 170750Z AUTO 28006KT 9999 FEW120/// 05/01 Q0997 W (280°) 6.9mph 5°C 1°C
17/03/19 06:50 EGXZ 170650Z AUTO 28009KT 9999 FEW140/// 04/M00 Q0996 W (280°) 10.4mph 4°C 0°C
17/03/19 05:50 EGXZ 170550Z AUTO 27008KT 9999 BKN160/// 03/00 Q0995 W (270°) 9.2mph 3°C 0°C
17/03/19 04:50 EGXZ 170450Z AUTO 26005KT 9999 BKN150/// 04/00 Q0994 W (260°) 5.8mph 4°C 0°C
17/03/19 03:50 EGXZ 170350Z AUTO 27004KT 9999 FEW160/// 04/M00 Q0993 W (270°) 4.6mph 4°C 0°C
17/03/19 02:50 EGXZ 170250Z AUTO 27008KT 9999 SCT160/// 04/00 Q0993 W (270°) 9.2mph 4°C 0°C
17/03/19 01:50 EGXZ 170150Z AUTO 26009KT 9999 FEW160/// 04/00 Q0992 W (260°) 10.4mph 4°C 0°C
17/03/19 00:50 EGXZ 170050Z AUTO 24007KT 9999 FEW036/// SCT160/// 04/M00 Q0992 WSW (240°) 8.1mph 4°C 0°C
16/03/19 23:50 EGXZ 162350Z AUTO 32006KT 9999 NCD 05/M00 Q0991 NW (320°) 6.9mph 5°C 0°C
16/03/19 22:50 EGXZ 162250Z AUTO 28012KT 9999 NCD 05/00 Q0990 W (280°) 13.8mph 5°C 0°C
16/03/19 21:50 EGXZ 162150Z AUTO 30004KT 9999 FEW250/// 05/00 Q0990 WNW (300°) 4.6mph 5°C 0°C
16/03/19 20:50 EGXZ 162050Z AUTO 28010KT 9999 BKN200/// 05/01 Q0989 W (280°) 11.5mph 5°C 1°C
16/03/19 19:50 EGXZ 161950Z AUTO 27017G27KT 9999 FEW100/// SCT180/// 06/01 Q0987 W (270°) 19.6mph 31.1mph 6°C 1°C
16/03/19 18:50 EGXZ 161850Z AUTO 26021G31KT 9999 FEW021/// SCT090/// 07/03 Q0986 RERA W (260°) 24.2mph 35.7mph 7°C 3°C
16/03/19 17:50 EGXZ 161750Z AUTO 26022G34KT 9999 -RA FEW034/// BKN044/// 09/05 Q0985 -RA W (260°) 25.3mph 39.1mph 9°C 5°C
16/03/19 16:50 EGXZ 161650Z AUTO 23018KT 9999 SCT021/// BKN050/// 11/09 Q0984 RERA SW (230°) 20.7mph 11°C 9°C
16/03/19 15:50 EGXZ 161550Z AUTO 21019KT 9999 -RA FEW018/// BKN023/// 11/09 Q0985 -RA SSW (210°) 21.9mph 11°C 9°C
16/03/19 14:50 EGXZ 161450Z AUTO 22020G33KT 9999 -RA BKN017/// SCT034/// 11/10 Q0986 -RA SW (220°) 23.0mph 38.0mph 11°C 10°C
16/03/19 13:50 EGXZ 161350Z AUTO 22018KT 9999 -RA SCT017/// BKN023/// 11/09 Q0988 -RA SW (220°) 20.7mph 11°C 9°C
16/03/19 12:50 EGXZ 161250Z AUTO 21020KT 9999 -RA SCT015/// BKN023/// 11/09 Q0989 -RA SSW (210°) 23.0mph 11°C 9°C
16/03/19 11:50 EGXZ 161150Z AUTO 22020KT 9999 -RA BKN017/// SCT029/// 11/09 Q0990 -RA SW (220°) 23.0mph 11°C 9°C
16/03/19 10:50 EGXZ 161050Z AUTO 22019KT 9999 -RA FEW017/// BKN060/// 11/09 Q0990 -RA SW (220°) 21.9mph 11°C 9°C
16/03/19 09:50 EGXZ 160950Z AUTO 22018KT 9999 -RA BKN060/// 10/09 Q0991 -RA SW (220°) 20.7mph 10°C 9°C
16/03/19 08:50 EGXZ 160850Z AUTO 22015KT 9999 -RA FEW020/// BKN060/// 09/09 Q0992 -RA SW (220°) 17.3mph 9°C 9°C
16/03/19 07:50 EGXZ 160750Z AUTO 14008KT 4800 RA SCT003/// BKN010/// 06/06 Q0993 RA SE (140°) 9.2mph 6°C 6°C
16/03/19 06:50 EGXZ 160650Z AUTO 13011KT 6000 RA OVC003/// 05/05 Q0994 RA SE (130°) 12.7mph 5°C 5°C
16/03/19 05:50 EGXZ 160550Z AUTO 13010KT 5000 RA BKN004/// BKN010/// 05/04 Q0996 RA SE (130°) 11.5mph 5°C 4°C
16/03/19 04:50 EGXZ 160450Z AUTO 13007KT 8000 RA BKN014/// SCT034/// 04/04 Q0998 RA SE (130°) 8.1mph 4°C 4°C
16/03/19 03:50 EGXZ 160350Z AUTO 12005KT 9000 RA BKN014/// SCT022/// 04/04 Q1000 RA ESE (120°) 5.8mph 4°C 4°C
16/03/19 02:50 EGXZ 160250Z AUTO 17004KT 9999 RA BKN017/// SCT025/// 05/04 Q1002 RA S (170°) 4.6mph 5°C 4°C
16/03/19 01:50 EGXZ 160150Z AUTO 20009KT 9999 -RA FEW039/// BKN045/// 06/03 Q1003 -RA SSW (200°) 10.4mph 6°C 3°C
16/03/19 00:50 EGXZ 160050Z AUTO 22005KT 9999 OVC060/// 07/03 Q1004 SW (220°) 5.8mph 7°C 3°C
15/03/19 23:50 EGXZ 152350Z AUTO 22009KT 9999 FEW041/// BKN070/// 06/03 Q1005 SW (220°) 10.4mph 6°C 3°C
15/03/19 22:50 EGXZ 152250Z AUTO 23008KT 9999 FEW080/// BKN140/// 05/01 Q1005 SW (230°) 9.2mph 5°C 1°C
15/03/19 21:50 EGXZ 152150Z AUTO 19005KT 9999 FEW220/// 02/M02 Q1005 S (190°) 5.8mph 2°C -2°C
15/03/19 20:50 EGXZ 152050Z AUTO 24007KT 9999 NCD 06/01 Q1005 WSW (240°) 8.1mph 6°C 1°C
15/03/19 19:50 EGXZ 151950Z AUTO 27009KT 9999 NCD 06/01 Q1005 W (270°) 10.4mph 6°C 1°C
15/03/19 18:50 EGXZ 151850Z AUTO 27010KT 9999 NCD 07/01 Q1004 W (270°) 11.5mph 7°C 1°C
15/03/19 17:50 EGXZ 151750Z AUTO 27013KT 9999 FEW050/// 07/01 Q1004 W (270°) 15.0mph 7°C 1°C
15/03/19 16:50 EGXZ 151650Z AUTO 29020G32KT 9999 FEW041/// 09/00 Q1003 WNW (290°) 23.0mph 36.8mph 9°C 0°C
15/03/19 15:50 EGXZ 151550Z AUTO 31013KT 9999 SCT033/// BKN043/// 09/04 Q1002 RERA NW (310°) 15.0mph 9°C 4°C
15/03/19 14:50 EGXZ 151450Z AUTO 27023G37KT 9999 FEW036/// 10/02 Q1001 W (270°) 26.5mph 42.6mph 10°C 2°C
15/03/19 13:50 EGXZ 151350Z AUTO 28019G33KT 9999 FEW028/// 09/03 Q1001 RERA W (280°) 21.9mph 38.0mph 9°C 3°C
15/03/19 12:50 EGXZ 151250Z AUTO 28025G40KT 9999 // SCT041/// 10/03 Q1001 W (280°) 28.8mph 46.0mph 10°C 3°C
15/03/19 11:50 EGXZ 151150Z AUTO 28025KT 9999 FEW037/// 10/03 Q1000 W (280°) 28.8mph 10°C 3°C
15/03/19 10:50 EGXZ 151050Z AUTO 28026G42KT 9999 FEW043/// 11/02 Q0999 W (280°) 29.9mph 48.3mph 11°C 2°C
15/03/19 09:50 EGXZ 150950Z AUTO 27022G34KT 9999 NCD 11/02 Q0998 W (270°) 25.3mph 39.1mph 11°C 2°C
15/03/19 08:50 EGXZ 150850Z AUTO 29019G29KT 9999 FEW033/// 10/05 Q0997 WNW (290°) 21.9mph 33.4mph 10°C 5°C
15/03/19 07:50 EGXZ 150750Z AUTO 27023G43KT 9999 NCD 10/04 Q0996 W (270°) 26.5mph 49.5mph 10°C 4°C
15/03/19 06:50 EGXZ 150650Z AUTO 27020G31KT 9999 FEW140/// 11/06 Q0995 W (270°) 23.0mph 35.7mph 11°C 6°C
15/03/19 05:50 EGXZ 150550Z AUTO 26025G36KT 9999 BKN180/// 12/07 Q0994 W (260°) 28.8mph 41.4mph 12°C 7°C
15/03/19 04:50 EGXZ 150450Z AUTO 26022G35KT 9999 SCT018/// SCT190/// 12/09 Q0993 W (260°) 25.3mph 40.3mph 12°C 9°C
15/03/19 03:50 EGXZ 150350Z AUTO 19012KT 9999 BKN013/// BKN022/// 07/07 Q0994 RERA S (190°) 13.8mph 7°C 7°C
15/03/19 02:50 EGXZ 150250Z AUTO 18013KT 9999 -RA BKN014/// BKN021/// 07/06 Q0996 -RA S (180°) 15.0mph 7°C 6°C
15/03/19 01:50 EGXZ 150150Z AUTO 21011KT 9999 SCT022/// BKN028/// 07/05 Q0998 SSW (210°) 12.7mph 7°C 5°C
15/03/19 00:50 EGXZ 150050Z AUTO 23011KT 9999 BKN017/// 08/05 Q1000 SW (230°) 12.7mph 8°C 5°C
14/03/19 23:50 EGXZ 142350Z AUTO 25011KT 9999 SCT025/// SCT045/// BKN140/// 08/04 Q1000 WSW (250°) 12.7mph 8°C 4°C
14/03/19 22:50 EGXZ 142250Z AUTO 25008KT 9999 BKN029/// BKN040/// 08/04 Q1001 WSW (250°) 9.2mph 8°C 4°C
14/03/19 21:50 EGXZ 142150Z AUTO 25011KT 9999 BKN040/// BKN100/// 08/04 Q1001 WSW (250°) 12.7mph 8°C 4°C
14/03/19 20:50 EGXZ 142050Z AUTO 23007KT 9999 FEW039/// BKN110/// 07/04 Q1002 RERA SW (230°) 8.1mph 7°C 4°C
14/03/19 19:50 EGXZ 141950Z AUTO 25012KT 9999 SCT050/// BKN160/// 08/03 Q1003 WSW (250°) 13.8mph 8°C 3°C
14/03/19 18:50 EGXZ 141850Z AUTO 25010KT 9999 FEW050/// SCT200/// 08/03 Q1003 WSW (250°) 11.5mph 8°C 3°C
14/03/19 17:50 EGXZ 141750Z AUTO 26011KT 9999 FEW038/// SCT050/// 09/03 Q1002 W (260°) 12.7mph 9°C 3°C
14/03/19 16:50 EGXZ 141650Z AUTO 28014KT 9999 FEW035/// SCT050/// 10/03 Q1001 W (280°) 16.1mph 10°C 3°C
14/03/19 15:50 EGXZ 141550Z AUTO 28018KT 9999 FEW039/// BKN047/// 10/02 Q1000 W (280°) 20.7mph 10°C 2°C
14/03/19 14:50 EGXZ 141450Z AUTO 27019G31KT 9999 SCT035/// 11/04 Q1000 W (270°) 21.9mph 35.7mph 11°C 4°C
14/03/19 13:50 EGXZ 141350Z AUTO 29023G38KT 9999 SCT044/// 11/02 Q0998 WNW (290°) 26.5mph 43.7mph 11°C 2°C
14/03/19 12:50 EGXZ 141250Z AUTO 29022G32KT 9999 FEW042/// 11/03 Q0997 WNW (290°) 25.3mph 36.8mph 11°C 3°C
14/03/19 11:50 EGXZ 141150Z AUTO 30026G39KT 9999 SCT041/// 11/02 Q0996 WNW (300°) 29.9mph 44.9mph 11°C 2°C
14/03/19 10:50 EGXZ 141050Z AUTO 29017G27KT 9999 SCT033/// SCT039/// 11/03 Q0995 WNW (290°) 19.6mph 31.1mph 11°C 3°C
14/03/19 09:50 EGXZ 140950Z AUTO 29018G29KT 9999 SCT033/// 11/04 Q0994 RERA WNW (290°) 20.7mph 33.4mph 11°C 4°C
14/03/19 08:50 EGXZ 140850Z AUTO 29024G37KT 9999 -RADZ SCT090/// 10/04 Q0993 -RA -DZ WNW (290°) 27.6mph 42.6mph 10°C 4°C
14/03/19 07:50 EGXZ 140750Z AUTO 30025G35KT 9999 FEW036/// 10/05 Q0991 RERA WNW (300°) 28.8mph 40.3mph 10°C 5°C
14/03/19 06:50 EGXZ 140650Z AUTO 25023G33KT 9999 -RADZ FEW042/// BKN048/// 10/07 Q0990 -RA -DZ WSW (250°) 26.5mph 38.0mph 10°C 7°C
14/03/19 05:50 EGXZ 140550Z AUTO 25021KT 9999 -RADZ FEW018/// BKN080/// 09/07 Q0991 -RA -DZ WSW (250°) 24.2mph 9°C 7°C
14/03/19 04:50 EGXZ 140450Z AUTO 23017KT 9999 BKN019/// 09/06 Q0993 SW (230°) 19.6mph 9°C 6°C
14/03/19 03:50 EGXZ 140350Z AUTO 24017KT 9999 BKN022/// BKN130/// 08/05 Q0996 WSW (240°) 19.6mph 8°C 5°C
14/03/19 02:50 EGXZ 140250Z AUTO 24018G29KT 9999 FEW000/// BKN023/// BKN090/// 08/05 Q0998 WSW (240°) 20.7mph 33.4mph 8°C 5°C
14/03/19 01:50 EGXZ 140150Z AUTO 24018KT 9999 BKN023/// 08/05 Q1000 WSW (240°) 20.7mph 8°C 5°C
14/03/19 00:50 EGXZ 140050Z AUTO 24018KT 9999 BKN025/// BKN120/// 08/05 Q1001 WSW (240°) 20.7mph 8°C 5°C
13/03/19 23:50 EGXZ 132350Z AUTO 23015KT 9999 BKN022/// SCT100/// 07/04 Q1003 SW (230°) 17.3mph 7°C 4°C
13/03/19 22:50 EGXZ 132250Z AUTO 25017G27KT 9999 BKN100/// 07/04 Q1004 WSW (250°) 19.6mph 31.1mph 7°C 4°C
13/03/19 21:50 EGXZ 132150Z AUTO 26011KT 9999 SCT022/// BKN080/// 08/04 Q1006 W (260°) 12.7mph 8°C 4°C
13/03/19 20:50 EGXZ 132050Z AUTO 26013KT 9999 FEW025/// SCT050/// BKN090/// 08/03 Q1006 W (260°) 15.0mph 8°C 3°C
13/03/19 19:50 EGXZ 131950Z AUTO 28010KT 9999 FEW050/// BKN080/// 08/03 Q1007 W (280°) 11.5mph 8°C 3°C
13/03/19 18:50 EGXZ 131850Z AUTO 26011KT 9999 OVC130/// 08/02 Q1007 W (260°) 12.7mph 8°C 2°C
13/03/19 17:50 EGXZ 131750Z AUTO 28012KT 9999 FEW041/// BKN160/// 08/03 Q1006 RERA W (280°) 13.8mph 8°C 3°C
13/03/19 16:50 EGXZ 131650Z AUTO 29019G34KT 9999 FEW041/// SCT047/// 10/03 Q1006 WNW (290°) 21.9mph 39.1mph 10°C 3°C
13/03/19 15:50 EGXZ 131550Z AUTO 30021G31KT 9999 FEW037/// 10/03 Q1004 WNW (300°) 24.2mph 35.7mph 10°C 3°C
13/03/19 14:50 EGXZ 131450Z AUTO 30022G32KT 9999 FEW037/// SCT044/// 11/03 Q1004 WNW (300°) 25.3mph 36.8mph 11°C 3°C
13/03/19 13:50 EGXZ 131350Z AUTO 30025KT 9999 SCT041/// 11/03 Q1002 WNW (300°) 28.8mph 11°C 3°C
13/03/19 12:50 EGXZ 131250Z AUTO 31028G42KT 9999 FEW038/// 11/04 Q1001 NW (310°) 32.2mph 48.3mph 11°C 4°C
13/03/19 11:50 EGXZ 131150Z AUTO 30031G46KT 9999 FEW030/// 10/04 Q1000 WNW (300°) 35.7mph 52.9mph 10°C 4°C
13/03/19 10:50 EGXZ 131050Z AUTO 30031G45KT 9999 FEW033/// 10/04 Q0999 WNW (300°) 35.7mph 51.8mph 10°C 4°C
13/03/19 09:50 EGXZ 130950Z AUTO 30030G44KT 9999 BKN037/// 09/03 Q0997 WNW (300°) 34.5mph 50.6mph 9°C 3°C
13/03/19 08:50 EGXZ 130850Z AUTO 30026G37KT 9999 SCT040/// SCT140/// 09/02 Q0996 WNW (300°) 29.9mph 42.6mph 9°C 2°C
13/03/19 07:50 EGXZ 130750Z AUTO 29024G34KT 9999 FEW041/// 09/02 Q0994 WNW (290°) 27.6mph 39.1mph 9°C 2°C
13/03/19 06:50 EGXZ 130650Z AUTO 30022G35KT 9999 SCT140/// 08/02 Q0992 WNW (300°) 25.3mph 40.3mph 8°C 2°C
13/03/19 05:50 EGXZ 130550Z AUTO 28021G34KT 9999 BKN150/// 07/03 Q0991 W (280°) 24.2mph 39.1mph 7°C 3°C
13/03/19 04:50 EGXZ 130450Z AUTO 27026G42KT 9999 BKN140/// 07/03 Q0990 RERA W (270°) 29.9mph 48.3mph 7°C 3°C
13/03/19 03:50 EGXZ 130350Z AUTO 27024G38KT 9999 SCT050/// 08/03 Q0989 RERA W (270°) 27.6mph 43.7mph 8°C 3°C